Pecan, Mississippi
Current Conditions -  °F | °C
As of 10:53 PM on Friday 19 Dec 2014 (Local Time) from KPQL Reporting Station
Light Rain Light Rain  
Wind Chill: 44°   Ceiling: 600
Heat Index: 48°   Visibility: 10mi
Dew Point: 46°   Wind: 8mph
Humidity: 93%   Direction: 360°N
Pressure: 30.11"   Gusts: NA
Location:  30.3649°N, 88.5432°W
Report Text: KPQL 200453Z AUTO 36007KT 10SM -RA OVC006 09/08 A3011 RMK AO2 RAB09 SLP197 P0000 T00890078 TSNO
Loading
Personal Weather Stations






























Interactive Weather Map New forecast layout! Learn more

10-Day Weather Forecast

Advertisements
Track Severe Weather on mobile